Juan De Fuca — WDA5852 — position and weather

sailwx.info

Track history (hours):
 
Tides and Currents Weather Stations Pressure Air Temp Water Temp Dewpoint Dewpoint Depression Visibility Wind Speed Wind Dir Waves Ship Positions

Juan De Fuca

Owner: Puget Sound Pilots, Seattle, WA. More information available from US FCC via Universal Licensing System.

Last reported at 2018-Jun-20 13:45 UTC. Time now 2018-Jun-21 04:44 UTC.
Position N 48°08' W 123°26'.

Length 23 m; draft 1.7 m.

Type: Pilot. MMSI: 366824910.

Date/timePositionNaut miles runAvg speedWind from/ knotsBaromVisibWave heightAir tempDewpointWater temp
2018-Jun-20 13:45N 48°08' W 123°26'0 0.0
2018-Jun-20 13:26N 48°08' W 123°26'2 3.9
2018-Jun-20 12:58N 48°10' W 123°24'2 2.9
2018-Jun-20 12:21N 48°08' W 123°26'0 0.0
2018-Jun-20 11:58N 48°08' W 123°26'0 0.0
2018-Jun-20 11:29N 48°08' W 123°26'2 4.0
2018-Jun-20 10:59N 48°09' W 123°23'2 2.4
2018-Jun-20 10:10N 48°08' W 123°26'0 0.0
2018-Jun-20 09:57N 48°08' W 123°26'0 0.0
2018-Jun-20 09:29N 48°08' W 123°26'0 0.0
2018-Jun-20 08:57N 48°08' W 123°26'0 0.0
2018-Jun-20 07:59N 48°08' W 123°26'0 0.0
2018-Jun-20 07:30N 48°08' W 123°26'0 0.0
2018-Jun-20 06:58N 48°08' W 123°26'0 0.0
2018-Jun-20 06:27N 48°08' W 123°26'1 0.1
2018-Jun-19 12:51N 48°09' W 123°24'1 0.5
2018-Jun-19 11:08N 48°09' W 123°23'2 0.4
2018-Jun-19 05:47N 48°08' W 123°26'0 0.0
2018-Jun-18 05:47N 48°08' W 123°26'0 0.0
2018-Jun-17 14:33N 48°08' W 123°26'0 0.0
2018-Jun-17 14:30N 48°08' W 123°26'0 0.0
2018-Jun-17 13:59N 48°08' W 123°26'0 0.0
2018-Jun-17 13:30N 48°08' W 123°26'0 0.0
2018-Jun-17 13:00N 48°08' W 123°26'1 2.1
2018-Jun-17 12:29N 48°08' W 123°24'1 2.2
2018-Jun-17 12:00N 48°08' W 123°26'0 0.0
2018-Jun-17 11:30N 48°08' W 123°26'0 0.0
2018-Jun-17 10:59N 48°08' W 123°26'0 0.0
2018-Jun-17 10:30N 48°08' W 123°26'0 0.0
2018-Jun-17 10:00N 48°08' W 123°26'0 0.0
2018-Jun-17 09:30N 48°08' W 123°26'1 0.0
2018-Jun-16 14:43N 48°08' W 123°27'1 1.2
2018-Jun-16 14:02N 48°08' W 123°26'1 8.8
2018-Jun-16 13:55N 48°08' W 123°24'1 2.6
2018-Jun-16 13:30N 48°08' W 123°26'2 3.2
2018-Jun-16 13:00N 48°08' W 123°23'2 0.9
2018-Jun-16 11:15N 48°08' W 123°25'2 6.6
2018-Jun-16 11:00N 48°08' W 123°23'2 3.1
2018-Jun-16 10:28N 48°08' W 123°26'0 0.0
2018-Jun-16 09:48N 48°08' W 123°26'0 0.0
2018-Jun-14 13:54N 48°08' W 123°26'2 5.6
2018-Jun-14 13:30N 48°08' W 123°22'1 2.1
2018-Jun-14 12:56N 48°08' W 123°24'1 2.4
2018-Jun-14 12:30N 48°08' W 123°26'0 0.0
2018-Jun-14 11:59N 48°08' W 123°26'0 0.0
2018-Jun-14 11:30N 48°08' W 123°26'0 0.0
2018-Jun-14 11:00N 48°08' W 123°26'0 0.0
2018-Jun-14 10:30N 48°08' W 123°26'0 0.0
2018-Jun-14 10:00N 48°08' W 123°26'0 0.0
2018-Jun-14 09:30N 48°08' W 123°26'0 0.0
2018-Jun-14 08:58N 48°08' W 123°26'0 0.0
2018-Jun-14 08:28N 48°08' W 123°26'0 0.0
2018-Jun-14 08:00N 48°08' W 123°26'0 0.0
2018-Jun-14 07:30N 48°08' W 123°26'0 0.0
2018-Jun-14 07:00N 48°08' W 123°26'0 0.0
2018-Jun-13 14:19N 48°08' W 123°26'0 0.0
2018-Jun-13 14:00N 48°08' W 123°26'0 0.5
2018-Jun-13 13:30N 48°08' W 123°25'0 0.4
2018-Jun-13 13:00N 48°08' W 123°26'0 0.0
2018-Jun-13 12:30N 48°08' W 123°26'0 0.5
2018-Jun-13 12:00N 48°08' W 123°25'0 0.4
2018-Jun-13 11:30N 48°08' W 123°26'0 0.0
2018-Jun-13 11:00N 48°08' W 123°26'0 0.0
2018-Jun-13 10:30N 48°08' W 123°26'0 0.0
2018-Jun-13 10:00N 48°08' W 123°26'0 0.0
2018-Jun-13 09:18N 48°08' W 123°26'0 0.0
2018-Jun-13 08:56N 48°08' W 123°26'0 0.0
2018-Jun-13 08:26N 48°08' W 123°26'0 0.0
2018-Jun-13 08:00N 48°08' W 123°26'0 0.0
2018-Jun-13 07:30N 48°08' W 123°26'0 0.0
2018-Jun-13 06:59N 48°08' W 123°26'0 0.0
2018-Jun-13 06:30N 48°08' W 123°26'0 0.0
2018-Jun-13 05:51N 48°08' W 123°26'0 0.0
2018-Jun-12 13:56N 48°08' W 123°26'0 0.0
2018-Jun-12 13:30N 48°08' W 123°26'0 0.0
2018-Jun-12 13:00N 48°08' W 123°26'0 1.0
2018-Jun-12 12:29N 48°08' W 123°25'0 1.0
2018-Jun-12 12:00N 48°08' W 123°26'0 0.0
2018-Jun-12 11:30N 48°08' W 123°26'0 0.0
2018-Jun-12 11:00N 48°08' W 123°26'0 0.0
2018-Jun-12 10:29N 48°08' W 123°26'0 0.0
2018-Jun-12 10:00N 48°08' W 123°26'0 0.0
2018-Jun-12 09:30N 48°08' W 123°26'0 0.0
2018-Jun-12 09:00N 48°08' W 123°26'0 0.0
2018-Jun-12 08:30N 48°08' W 123°26'0 0.0
2018-Jun-12 07:58N 48°08' W 123°26'0 0.0
2018-Jun-12 07:31N 48°08' W 123°26'0 0.0
2018-Jun-12 06:58N 48°08' W 123°26'0 0.0
2018-Jun-11 13:59N 48°08' W 123°26'0 0.0
2018-Jun-11 13:28N 48°08' W 123°26'0 0.0
2018-Jun-11 12:59N 48°08' W 123°26'0 0.0
2018-Jun-11 12:29N 48°08' W 123°26'0 0.0
2018-Jun-11 11:59N 48°08' W 123°26'1 2.8
2018-Jun-11 11:30N 48°09' W 123°24'1 2.7
2018-Jun-11 11:00N 48°08' W 123°26'1 1.9
2018-Jun-11 10:26N 48°08' W 123°24'1 2.4
2018-Jun-11 09:59N 48°08' W 123°26'0 0.0
2018-Jun-11 09:30N 48°08' W 123°26'0 0.0
2018-Jun-11 09:00N 48°08' W 123°26'0 0.0
2018-Jun-11 08:30N 48°08' W 123°26'0 0.0
2018-Jun-11 08:00N 48°08' W 123°26'0 0.0
2018-Jun-11 07:30N 48°08' W 123°26'2 3.2
2018-Jun-11 06:59N 48°10' W 123°24'2 3.6
2018-Jun-11 06:30N 48°08' W 123°26'0 0.0
2018-Jun-11 06:00N 48°08' W 123°26'0 0.0
2018-Jun-10 15:07N 48°08' W 123°26'0 0.0
2018-Jun-10 15:00N 48°08' W 123°26'0 0.0
2018-Jun-10 13:59N 48°08' W 123°26'  
Track history (hours):
 
Tides and Currents Weather Stations Pressure Air Temp Water Temp Dewpoint Dewpoint Depression Visibility Wind Speed Wind Dir Waves Ship Positions

Juan De Fuca

Owner: Puget Sound Pilots, Seattle, WA. More information available from US FCC via Universal Licensing System.

Last reported at 2018-Jun-20 13:45 UTC. Time now 2018-Jun-21 04:44 UTC.
Position N 48°08' W 123°26'.

Length 23 m; draft 1.7 m.

Type: Pilot. MMSI: 366824910.

Date/timePositionNaut miles runAvg speedWind from/ knotsBaromVisibWave heightAir tempDewpointWater temp
2018-Jun-20 13:45N 48°08' W 123°26'0 0.0
2018-Jun-20 13:26N 48°08' W 123°26'2 3.9
2018-Jun-20 12:58N 48°10' W 123°24'2 2.9
2018-Jun-20 12:21N 48°08' W 123°26'0 0.0
2018-Jun-20 11:58N 48°08' W 123°26'0 0.0
2018-Jun-20 11:29N 48°08' W 123°26'2 4.0
2018-Jun-20 10:59N 48°09' W 123°23'2 2.4
2018-Jun-20 10:10N 48°08' W 123°26'0 0.0
2018-Jun-20 09:57N 48°08' W 123°26'0 0.0
2018-Jun-20 09:29N 48°08' W 123°26'0 0.0
2018-Jun-20 08:57N 48°08' W 123°26'0 0.0
2018-Jun-20 07:59N 48°08' W 123°26'0 0.0
2018-Jun-20 07:30N 48°08' W 123°26'0 0.0
2018-Jun-20 06:58N 48°08' W 123°26'0 0.0
2018-Jun-20 06:27N 48°08' W 123°26'1 0.1
2018-Jun-19 12:51N 48°09' W 123°24'1 0.5
2018-Jun-19 11:08N 48°09' W 123°23'2 0.4
2018-Jun-19 05:47N 48°08' W 123°26'0 0.0
2018-Jun-18 05:47N 48°08' W 123°26'0 0.0
2018-Jun-17 14:33N 48°08' W 123°26'0 0.0
2018-Jun-17 14:30N 48°08' W 123°26'0 0.0
2018-Jun-17 13:59N 48°08' W 123°26'0 0.0
2018-Jun-17 13:30N 48°08' W 123°26'0 0.0
2018-Jun-17 13:00N 48°08' W 123°26'1 2.1
2018-Jun-17 12:29N 48°08' W 123°24'1 2.2
2018-Jun-17 12:00N 48°08' W 123°26'0 0.0
2018-Jun-17 11:30N 48°08' W 123°26'0 0.0
2018-Jun-17 10:59N 48°08' W 123°26'0 0.0
2018-Jun-17 10:30N 48°08' W 123°26'0 0.0
2018-Jun-17 10:00N 48°08' W 123°26'0 0.0
2018-Jun-17 09:30N 48°08' W 123°26'1 0.0
2018-Jun-16 14:43N 48°08' W 123°27'1 1.2
2018-Jun-16 14:02N 48°08' W 123°26'1 8.8
2018-Jun-16 13:55N 48°08' W 123°24'1 2.6
2018-Jun-16 13:30N 48°08' W 123°26'2 3.2
2018-Jun-16 13:00N 48°08' W 123°23'2 0.9
2018-Jun-16 11:15N 48°08' W 123°25'2 6.6
2018-Jun-16 11:00N 48°08' W 123°23'2 3.1
2018-Jun-16 10:28N 48°08' W 123°26'0 0.0
2018-Jun-16 09:48N 48°08' W 123°26'0 0.0
2018-Jun-14 13:54N 48°08' W 123°26'2 5.6
2018-Jun-14 13:30N 48°08' W 123°22'1 2.1
2018-Jun-14 12:56N 48°08' W 123°24'1 2.4
2018-Jun-14 12:30N 48°08' W 123°26'0 0.0
2018-Jun-14 11:59N 48°08' W 123°26'0 0.0
2018-Jun-14 11:30N 48°08' W 123°26'0 0.0
2018-Jun-14 11:00N 48°08' W 123°26'0 0.0
2018-Jun-14 10:30N 48°08' W 123°26'0 0.0
2018-Jun-14 10:00N 48°08' W 123°26'0 0.0
2018-Jun-14 09:30N 48°08' W 123°26'0 0.0
2018-Jun-14 08:58N 48°08' W 123°26'0 0.0
2018-Jun-14 08:28N 48°08' W 123°26'0 0.0
2018-Jun-14 08:00N 48°08' W 123°26'0 0.0
2018-Jun-14 07:30N 48°08' W 123°26'0 0.0
2018-Jun-14 07:00N 48°08' W 123°26'0 0.0
2018-Jun-13 14:19N 48°08' W 123°26'0 0.0
2018-Jun-13 14:00N 48°08' W 123°26'0 0.5
2018-Jun-13 13:30N 48°08' W 123°25'0 0.4
2018-Jun-13 13:00N 48°08' W 123°26'0 0.0
2018-Jun-13 12:30N 48°08' W 123°26'0 0.5
2018-Jun-13 12:00N 48°08' W 123°25'0 0.4
2018-Jun-13 11:30N 48°08' W 123°26'0 0.0
2018-Jun-13 11:00N 48°08' W 123°26'0 0.0
2018-Jun-13 10:30N 48°08' W 123°26'0 0.0
2018-Jun-13 10:00N 48°08' W 123°26'0 0.0
2018-Jun-13 09:18N 48°08' W 123°26'0 0.0
2018-Jun-13 08:56N 48°08' W 123°26'0 0.0
2018-Jun-13 08:26N 48°08' W 123°26'0 0.0
2018-Jun-13 08:00N 48°08' W 123°26'0 0.0
2018-Jun-13 07:30N 48°08' W 123°26'0 0.0
2018-Jun-13 06:59N 48°08' W 123°26'0 0.0
2018-Jun-13 06:30N 48°08' W 123°26'0 0.0
2018-Jun-13 05:51N 48°08' W 123°26'0 0.0
2018-Jun-12 13:56N 48°08' W 123°26'0 0.0
2018-Jun-12 13:30N 48°08' W 123°26'0 0.0
2018-Jun-12 13:00N 48°08' W 123°26'0 1.0
2018-Jun-12 12:29N 48°08' W 123°25'0 1.0
2018-Jun-12 12:00N 48°08' W 123°26'0 0.0
2018-Jun-12 11:30N 48°08' W 123°26'0 0.0
2018-Jun-12 11:00N 48°08' W 123°26'0 0.0
2018-Jun-12 10:29N 48°08' W 123°26'0 0.0
2018-Jun-12 10:00N 48°08' W 123°26'0 0.0
2018-Jun-12 09:30N 48°08' W 123°26'0 0.0
2018-Jun-12 09:00N 48°08' W 123°26'0 0.0
2018-Jun-12 08:30N 48°08' W 123°26'0 0.0
2018-Jun-12 07:58N 48°08' W 123°26'0 0.0
2018-Jun-12 07:31N 48°08' W 123°26'0 0.0
2018-Jun-12 06:58N 48°08' W 123°26'0 0.0
2018-Jun-11 13:59N 48°08' W 123°26'0 0.0
2018-Jun-11 13:28N 48°08' W 123°26'0 0.0
2018-Jun-11 12:59N 48°08' W 123°26'0 0.0
2018-Jun-11 12:29N 48°08' W 123°26'0 0.0
2018-Jun-11 11:59N 48°08' W 123°26'1 2.8
2018-Jun-11 11:30N 48°09' W 123°24'1 2.7
2018-Jun-11 11:00N 48°08' W 123°26'1 1.9
2018-Jun-11 10:26N 48°08' W 123°24'1 2.4
2018-Jun-11 09:59N 48°08' W 123°26'0 0.0
2018-Jun-11 09:30N 48°08' W 123°26'0 0.0
2018-Jun-11 09:00N 48°08' W 123°26'0 0.0
2018-Jun-11 08:30N 48°08' W 123°26'0 0.0
2018-Jun-11 08:00N 48°08' W 123°26'0 0.0
2018-Jun-11 07:30N 48°08' W 123°26'2 3.2
2018-Jun-11 06:59N 48°10' W 123°24'2 3.6
2018-Jun-11 06:30N 48°08' W 123°26'0 0.0
2018-Jun-11 06:00N 48°08' W 123°26'0 0.0
2018-Jun-10 15:07N 48°08' W 123°26'0 0.0
2018-Jun-10 15:00N 48°08' W 123°26'0 0.0
2018-Jun-10 13:59N 48°08' W 123°26'  

Dump ship's entire track history